Terminal Aerodrome Forecast
Issued by NWS Twin Cities, MN

Home | Current Version | Previous Version | Graphics & Text | Print | Product List | Glossary On
Versions: 1 2 3 4 5 6 7 8 9 10 11 12 13 14 15 16 17 18 19 20 21 22 23 24 25
059
FTUS43 KMPX 250836 AAC
TAFMSP
TAF AMD
KMSP 250836Z 2509/2612 28008KT P6SM TS BKN060CB
     FM251030 20008KT P6SM FEW080 SCT150
     FM251800 25010KT P6SM SCT070
     FM260100 28005KT P6SM FEW070
     FM260700 25002KT P6SM SKC=

USA.gov is the U.S. government's official web portal to all federal, state and local government web resources and services.